TimeCST,TemperatureF,Dew PointF,Humidity,Sea Level PressureIn,VisibilityMPH,Wind Direction,Wind SpeedMPH,Gust SpeedMPH,PrecipitationIn,Events,Conditions,WindDirDegrees,DateUTC
12:09 AM,75.2,69.8,83,29.69,8.0,SSE,21.9,31.1,N/A,,Overcast,160,2013-02-21 06:09:00
12:53 AM,75.0,69.1,82,29.66,7.0,SSE,27.6,34.5,N/A,,Overcast,160,2013-02-21 06:53:00
1:01 AM,73.4,69.8,88,29.66,7.0,SSE,24.2,33.4,N/A,,Overcast,160,2013-02-21 07:01:00
1:13 AM,73.4,68.0,83,29.66,7.0,SSE,25.3,33.4,N/A,,Mostly Cloudy,160,2013-02-21 07:13:00
1:30 AM,73.4,69.8,88,29.66,7.0,South,21.9,34.5,N/A,,Scattered Clouds,170,2013-02-21 07:30:00
1:53 AM,73.9,69.1,85,29.65,7.0,SSE,24.2,34.5,N/A,,Partly Cloudy,160,2013-02-21 07:53:00
2:53 AM,75.0,68.0,79,29.62,7.0,SSE,27.6,40.3,N/A,,Clear,160,2013-02-21 08:53:00
3:53 AM,75.0,69.1,82,29.61,7.0,South,26.5,39.1,N/A,,Partly Cloudy,170,2013-02-21 09:53:00
4:53 AM,73.9,68.0,82,29.60,7.0,South,26.5,38.0,N/A,,Partly Cloudy,170,2013-02-21 10:53:00
5:53 AM,73.9,68.0,82,29.61,7.0,South,24.2,33.4,N/A,,Clear,170,2013-02-21 11:53:00
6:53 AM,73.9,69.1,85,29.63,7.0,South,24.2,36.8,N/A,,Partly Cloudy,170,2013-02-21 12:53:00
7:15 AM,73.4,69.8,88,29.64,6.0,South,25.3,34.5,N/A,,Haze,180,2013-02-21 13:15:00
8:53 AM,77.0,69.1,76,29.70,6.0,South,20.7,28.8,N/A,,Haze,180,2013-02-21 14:53:00
9:37 AM,78.8,69.8,74,29.70,6.0,South,21.9,32.2,N/A,,Haze,180,2013-02-21 15:37:00
9:53 AM,79.0,69.1,72,29.70,6.0,South,21.9,34.5,N/A,,Haze,180,2013-02-21 15:53:00
10:53 AM,82.9,69.1,63,29.69,6.0,South,24.2,39.1,N/A,,Haze,180,2013-02-21 16:53:00
11:53 AM,86.0,69.1,57,29.68,7.0,South,23.0,33.4,N/A,,Clear,190,2013-02-21 17:53:00
12:53 PM,86.0,70.0,59,29.65,7.0,South,25.3,32.2,N/A,,Clear,180,2013-02-21 18:53:00
1:53 PM,84.9,69.1,59,29.65,7.0,South,18.4,31.1,N/A,,Clear,190,2013-02-21 19:53:00
2:53 PM,82.9,69.1,63,29.64,7.0,South,15.0,24.2,N/A,,Clear,180,2013-02-21 20:53:00
3:53 PM,82.0,69.1,65,29.64,7.0,SSE,16.1,21.9,N/A,,Clear,160,2013-02-21 21:53:00
4:53 PM,80.1,70.0,71,29.66,7.0,SSE,13.8,-,N/A,,Clear,160,2013-02-21 22:53:00
5:53 PM,78.1,70.0,76,29.68,7.0,SSE,12.7,-,N/A,,Clear,160,2013-02-21 23:53:00
6:53 PM,77.0,70.0,79,29.70,7.0,SSE,8.1,-,N/A,,Clear,150,2013-02-22 00:53:00
7:53 PM,73.9,69.1,85,29.73,7.0,East,4.6,-,N/A,,Scattered Clouds,80,2013-02-22 01:53:00
8:02 PM,73.4,69.8,88,29.73,6.0,East,5.8,-,N/A,,Mostly Cloudy,90,2013-02-22 02:02:00
8:21 PM,73.4,69.8,88,29.75,6.0,East,4.6,-,N/A,,Overcast,90,2013-02-22 02:21:00
8:29 PM,73.4,69.8,88,29.75,6.0,NE,4.6,-,N/A,,Haze,50,2013-02-22 02:29:00
8:53 PM,73.9,70.0,87,29.76,6.0,Calm,Calm,-,N/A,,Overcast,0,2013-02-22 02:53:00
9:13 PM,73.4,69.8,88,29.77,6.0,Calm,Calm,-,N/A,,Haze,0,2013-02-22 03:13:00
9:53 PM,73.9,69.1,85,29.78,6.0,ENE,3.5,-,N/A,,Haze,60,2013-02-22 03:53:00
10:03 PM,73.4,69.8,88,29.77,6.0,Calm,Calm,-,N/A,,Haze,0,2013-02-22 04:03:00
10:19 PM,73.4,69.8,88,29.78,5.0,ENE,4.6,-,N/A,,Overcast,70,2013-02-22 04:19:00
10:53 PM,73.0,69.1,87,29.78,5.0,East,5.8,-,N/A,,Overcast,80,2013-02-22 04:53:00
11:09 PM,73.4,69.8,88,29.77,5.0,East,8.1,-,N/A,,Overcast,90,2013-02-22 05:09:00
11:24 PM,73.4,69.8,88,29.78,5.0,ENE,5.8,-,N/A,,Overcast,60,2013-02-22 05:24:00
11:53 PM,72.0,68.0,87,29.78,4.0,NNE,8.1,-,N/A,,Overcast,20,2013-02-22 05:53:00